sensor_id;sensor_type;location;lat;lon;timestamp;temperature;humidity
32600;DHT22;19277;51.778;7.912;2023-07-31T00:00:38;20.50;99.90
32600;DHT22;19277;51.778;7.912;2023-07-31T00:03:04;20.70;99.40
32600;DHT22;19277;51.778;7.912;2023-07-31T00:05:29;20.80;98.90
32600;DHT22;19277;51.778;7.912;2023-07-31T00:07:55;21.00;98.50
32600;DHT22;19277;51.778;7.912;2023-07-31T00:10:20;21.10;98.10
32600;DHT22;19277;51.778;7.912;2023-07-31T00:12:46;21.20;97.70
32600;DHT22;19277;51.778;7.912;2023-07-31T00:15:13;21.20;97.40
32600;DHT22;19277;51.778;7.912;2023-07-31T00:17:39;21.30;97.10
32600;DHT22;19277;51.778;7.912;2023-07-31T00:20:05;21.40;96.90
32600;DHT22;19277;51.778;7.912;2023-07-31T00:22:31;21.50;96.60
32600;DHT22;19277;51.778;7.912;2023-07-31T00:24:56;21.50;96.30
32600;DHT22;19277;51.778;7.912;2023-07-31T00:27:23;21.50;96.00
32600;DHT22;19277;51.778;7.912;2023-07-31T00:29:48;21.60;95.80
32600;DHT22;19277;51.778;7.912;2023-07-31T00:32:14;21.60;95.50
32600;DHT22;19277;51.778;7.912;2023-07-31T00:34:39;21.60;95.30
32600;DHT22;19277;51.778;7.912;2023-07-31T00:37:05;21.70;95.20
32600;DHT22;19277;51.778;7.912;2023-07-31T00:39:33;21.70;94.90
32600;DHT22;19277;51.778;7.912;2023-07-31T00:41:59;21.70;94.90
32600;DHT22;19277;51.778;7.912;2023-07-31T00:44:24;21.70;94.40
32600;DHT22;19277;51.778;7.912;2023-07-31T00:46:50;21.70;94.20
32600;DHT22;19277;51.778;7.912;2023-07-31T00:49:16;21.80;94.10
32600;DHT22;19277;51.778;7.912;2023-07-31T00:51:41;21.70;94.00
32600;DHT22;19277;51.778;7.912;2023-07-31T00:54:07;21.70;93.90
32600;DHT22;19277;51.778;7.912;2023-07-31T00:56:33;21.70;93.80
32600;DHT22;19277;51.778;7.912;2023-07-31T00:58:59;21.80;93.70
32600;DHT22;19277;51.778;7.912;2023-07-31T01:01:24;21.70;93.70
32600;DHT22;19277;51.778;7.912;2023-07-31T01:03:52;21.70;93.60
32600;DHT22;19277;51.778;7.912;2023-07-31T01:06:40;21.70;93.60
32600;DHT22;19277;51.778;7.912;2023-07-31T01:12:02;21.70;93.30
32600;DHT22;19277;51.778;7.912;2023-07-31T01:14:28;21.70;93.20
32600;DHT22;19277;51.778;7.912;2023-07-31T01:16:54;21.70;93.20
32600;DHT22;19277;51.778;7.912;2023-07-31T01:19:23;21.70;93.30
32600;DHT22;19277;51.778;7.912;2023-07-31T01:24:25;21.70;93.20
32600;DHT22;19277;51.778;7.912;2023-07-31T01:26:57;21.70;93.20
32600;DHT22;19277;51.778;7.912;2023-07-31T01:29:32;21.70;93.20
32600;DHT22;19277;51.778;7.912;2023-07-31T01:32:01;21.70;93.20
32600;DHT22;19277;51.778;7.912;2023-07-31T01:34:28;21.70;93.30
32600;DHT22;19277;51.778;7.912;2023-07-31T01:36:56;21.70;93.30
32600;DHT22;19277;51.778;7.912;2023-07-31T01:39:23;21.70;93.20
32600;DHT22;19277;51.778;7.912;2023-07-31T01:41:49;21.70;93.20
32600;DHT22;19277;51.778;7.912;2023-07-31T01:44:14;21.70;93.20
32600;DHT22;19277;51.778;7.912;2023-07-31T01:46:40;21.70;93.20
32600;DHT22;19277;51.778;7.912;2023-07-31T01:49:06;21.70;93.10
32600;DHT22;19277;51.778;7.912;2023-07-31T01:51:31;21.70;93.20
32600;DHT22;19277;51.778;7.912;2023-07-31T01:54:00;21.70;93.10
32600;DHT22;19277;51.778;7.912;2023-07-31T01:56:25;21.70;93.10
32600;DHT22;19277;51.778;7.912;2023-07-31T01:58:51;21.70;93.20
32600;DHT22;19277;51.778;7.912;2023-07-31T02:01:16;21.80;93.30
32600;DHT22;19277;51.778;7.912;2023-07-31T02:03:42;21.70;93.20
32600;DHT22;19277;51.778;7.912;2023-07-31T02:06:08;21.80;93.30
32600;DHT22;19277;51.778;7.912;2023-07-31T02:08:33;21.80;93.30
32600;DHT22;19277;51.778;7.912;2023-07-31T02:10:59;21.80;93.40
32600;DHT22;19277;51.778;7.912;2023-07-31T02:13:24;21.80;93.40
32600;DHT22;19277;51.778;7.912;2023-07-31T02:15:50;21.80;93.40
32600;DHT22;19277;51.778;7.912;2023-07-31T02:18:16;21.80;93.40
32600;DHT22;19277;51.778;7.912;2023-07-31T02:20:41;21.90;93.40
32600;DHT22;19277;51.778;7.912;2023-07-31T02:23:07;21.90;93.40
32600;DHT22;19277;51.778;7.912;2023-07-31T02:25:33;21.90;93.40
32600;DHT22;19277;51.778;7.912;2023-07-31T02:27:58;21.90;93.40
32600;DHT22;19277;51.778;7.912;2023-07-31T02:30:24;21.90;93.40
32600;DHT22;19277;51.778;7.912;2023-07-31T02:32:49;21.90;93.30
32600;DHT22;19277;51.778;7.912;2023-07-31T02:35:15;21.90;93.30
32600;DHT22;19277;51.778;7.912;2023-07-31T02:37:42;21.90;93.20
32600;DHT22;19277;51.778;7.912;2023-07-31T02:40:08;22.00;93.20
32600;DHT22;19277;51.778;7.912;2023-07-31T02:42:33;22.00;93.20
32600;DHT22;19277;51.778;7.912;2023-07-31T02:44:59;22.00;93.10
32600;DHT22;19277;51.778;7.912;2023-07-31T02:47:24;22.00;93.10
32600;DHT22;19277;51.778;7.912;2023-07-31T02:49:50;22.00;93.10
32600;DHT22;19277;51.778;7.912;2023-07-31T02:52:16;22.00;93.20
32600;DHT22;19277;51.778;7.912;2023-07-31T02:54:41;22.00;93.10
32600;DHT22;19277;51.778;7.912;2023-07-31T02:57:07;22.00;92.90
32600;DHT22;19277;51.778;7.912;2023-07-31T02:59:32;22.00;93.10
32600;DHT22;19277;51.778;7.912;2023-07-31T03:01:58;22.00;93.10
32600;DHT22;19277;51.778;7.912;2023-07-31T03:04:23;22.00;93.00
32600;DHT22;19277;51.778;7.912;2023-07-31T03:06:49;22.00;93.10
32600;DHT22;19277;51.778;7.912;2023-07-31T03:09:14;22.00;93.10
32600;DHT22;19277;51.778;7.912;2023-07-31T03:11:40;22.00;93.10
32600;DHT22;19277;51.778;7.912;2023-07-31T03:14:05;22.00;93.00
32600;DHT22;19277;51.778;7.912;2023-07-31T03:16:31;22.00;93.00
32600;DHT22;19277;51.778;7.912;2023-07-31T03:18:56;22.00;93.10
32600;DHT22;19277;51.778;7.912;2023-07-31T03:21:22;22.00;93.10
32600;DHT22;19277;51.778;7.912;2023-07-31T03:23:48;22.00;92.90
32600;DHT22;19277;51.778;7.912;2023-07-31T03:26:14;22.00;92.90
32600;DHT22;19277;51.778;7.912;2023-07-31T03:28:39;22.10;92.90
32600;DHT22;19277;51.778;7.912;2023-07-31T03:31:05;22.00;92.80
32600;DHT22;19277;51.778;7.912;2023-07-31T03:33:30;22.10;92.80
32600;DHT22;19277;51.778;7.912;2023-07-31T03:35:56;22.10;92.90
32600;DHT22;19277;51.778;7.912;2023-07-31T03:38:22;22.10;92.90
32600;DHT22;19277;51.778;7.912;2023-07-31T03:40:48;22.00;92.90
32600;DHT22;19277;51.778;7.912;2023-07-31T03:43:13;22.10;92.80
32600;DHT22;19277;51.778;7.912;2023-07-31T03:45:39;22.00;92.70
32600;DHT22;19277;51.778;7.912;2023-07-31T03:48:05;22.10;92.80
32600;DHT22;19277;51.778;7.912;2023-07-31T03:50:31;22.10;92.90
32600;DHT22;19277;51.778;7.912;2023-07-31T03:52:56;22.10;92.90
32600;DHT22;19277;51.778;7.912;2023-07-31T03:55:22;22.10;92.70
32600;DHT22;19277;51.778;7.912;2023-07-31T03:57:47;22.10;92.80
32600;DHT22;19277;51.778;7.912;2023-07-31T04:00:13;22.10;92.60
32600;DHT22;19277;51.778;7.912;2023-07-31T04:02:39;22.10;92.50
32600;DHT22;19277;51.778;7.912;2023-07-31T04:05:05;22.10;92.50
32600;DHT22;19277;51.778;7.912;2023-07-31T04:07:30;22.10;92.40
32600;DHT22;19277;51.778;7.912;2023-07-31T04:09:57;22.10;92.30
32600;DHT22;19277;51.778;7.912;2023-07-31T04:12:22;22.10;92.30
32600;DHT22;19277;51.778;7.912;2023-07-31T04:14:48;22.10;92.20
32600;DHT22;19277;51.778;7.912;2023-07-31T04:17:13;22.10;92.20
32600;DHT22;19277;51.778;7.912;2023-07-31T04:19:39;22.20;92.20
32600;DHT22;19277;51.778;7.912;2023-07-31T04:22:05;22.20;92.00
32600;DHT22;19277;51.778;7.912;2023-07-31T04:24:30;22.20;92.00
32600;DHT22;19277;51.778;7.912;2023-07-31T04:26:56;22.20;92.00
32600;DHT22;19277;51.778;7.912;2023-07-31T04:29:22;22.20;91.90
32600;DHT22;19277;51.778;7.912;2023-07-31T04:31:48;22.20;92.00
32600;DHT22;19277;51.778;7.912;2023-07-31T04:34:13;22.20;92.10
32600;DHT22;19277;51.778;7.912;2023-07-31T04:36:39;22.20;92.10
32600;DHT22;19277;51.778;7.912;2023-07-31T04:39:04;22.20;92.00
32600;DHT22;19277;51.778;7.912;2023-07-31T04:41:30;22.20;92.00
32600;DHT22;19277;51.778;7.912;2023-07-31T04:43:55;22.10;91.90
32600;DHT22;19277;51.778;7.912;2023-07-31T04:46:21;22.20;92.10
32600;DHT22;19277;51.778;7.912;2023-07-31T04:48:46;22.20;92.10
32600;DHT22;19277;51.778;7.912;2023-07-31T04:51:12;22.20;92.20
32600;DHT22;19277;51.778;7.912;2023-07-31T04:53:38;22.20;92.20
32600;DHT22;19277;51.778;7.912;2023-07-31T04:56:03;22.20;92.20
32600;DHT22;19277;51.778;7.912;2023-07-31T04:58:29;22.20;92.20
32600;DHT22;19277;51.778;7.912;2023-07-31T05:00:54;22.20;92.30
32600;DHT22;19277;51.778;7.912;2023-07-31T05:03:20;22.20;92.40
32600;DHT22;19277;51.778;7.912;2023-07-31T05:05:46;22.20;92.40
32600;DHT22;19277;51.778;7.912;2023-07-31T05:08:11;22.20;92.20
32600;DHT22;19277;51.778;7.912;2023-07-31T05:10:37;22.20;92.30
32600;DHT22;19277;51.778;7.912;2023-07-31T05:13:03;22.20;92.10
32600;DHT22;19277;51.778;7.912;2023-07-31T05:15:29;22.20;92.10
32600;DHT22;19277;51.778;7.912;2023-07-31T05:17:54;22.20;92.00
32600;DHT22;19277;51.778;7.912;2023-07-31T05:20:20;22.20;92.00
32600;DHT22;19277;51.778;7.912;2023-07-31T05:22:46;22.20;92.00
32600;DHT22;19277;51.778;7.912;2023-07-31T05:25:12;22.30;91.90
32600;DHT22;19277;51.778;7.912;2023-07-31T05:27:38;22.30;91.80
32600;DHT22;19277;51.778;7.912;2023-07-31T05:30:04;22.20;92.00
32600;DHT22;19277;51.778;7.912;2023-07-31T05:32:30;22.30;92.00
32600;DHT22;19277;51.778;7.912;2023-07-31T05:34:55;22.30;92.00
32600;DHT22;19277;51.778;7.912;2023-07-31T05:37:21;22.30;91.90
32600;DHT22;19277;51.778;7.912;2023-07-31T05:39:47;22.40;92.10
32600;DHT22;19277;51.778;7.912;2023-07-31T05:42:13;22.30;91.80
32600;DHT22;19277;51.778;7.912;2023-07-31T05:44:38;22.40;91.90
32600;DHT22;19277;51.778;7.912;2023-07-31T05:47:04;22.40;91.80
32600;DHT22;19277;51.778;7.912;2023-07-31T05:49:30;22.40;91.80
32600;DHT22;19277;51.778;7.912;2023-07-31T05:51:56;22.40;91.80
32600;DHT22;19277;51.778;7.912;2023-07-31T05:54:21;22.40;91.90
32600;DHT22;19277;51.778;7.912;2023-07-31T05:56:47;22.40;91.90
32600;DHT22;19277;51.778;7.912;2023-07-31T05:59:13;22.40;91.80
32600;DHT22;19277;51.778;7.912;2023-07-31T06:01:39;22.40;91.80
32600;DHT22;19277;51.778;7.912;2023-07-31T06:04:04;22.40;91.80
32600;DHT22;19277;51.778;7.912;2023-07-31T06:06:30;22.40;91.70
32600;DHT22;19277;51.778;7.912;2023-07-31T06:08:56;22.40;91.70
32600;DHT22;19277;51.778;7.912;2023-07-31T06:11:22;22.40;91.80
32600;DHT22;19277;51.778;7.912;2023-07-31T06:13:48;22.40;91.80
32600;DHT22;19277;51.778;7.912;2023-07-31T06:16:15;22.40;92.00
32600;DHT22;19277;51.778;7.912;2023-07-31T06:18:41;22.40;91.90
32600;DHT22;19277;51.778;7.912;2023-07-31T06:21:07;22.40;91.90
32600;DHT22;19277;51.778;7.912;2023-07-31T06:23:32;22.40;91.80
32600;DHT22;19277;51.778;7.912;2023-07-31T06:25:58;22.50;91.90
32600;DHT22;19277;51.778;7.912;2023-07-31T06:28:32;22.40;92.00
32600;DHT22;19277;51.778;7.912;2023-07-31T06:30:58;22.40;91.80
32600;DHT22;19277;51.778;7.912;2023-07-31T06:33:24;22.40;92.00
32600;DHT22;19277;51.778;7.912;2023-07-31T06:35:50;22.40;92.00
32600;DHT22;19277;51.778;7.912;2023-07-31T06:38:19;22.40;91.90
32600;DHT22;19277;51.778;7.912;2023-07-31T06:40:44;22.40;91.90
32600;DHT22;19277;51.778;7.912;2023-07-31T06:43:10;22.40;92.00
32600;DHT22;19277;51.778;7.912;2023-07-31T06:45:36;22.40;91.90
32600;DHT22;19277;51.778;7.912;2023-07-31T06:48:02;22.40;91.90
32600;DHT22;19277;51.778;7.912;2023-07-31T06:50:29;22.40;92.20
32600;DHT22;19277;51.778;7.912;2023-07-31T06:52:55;22.40;92.00
32600;DHT22;19277;51.778;7.912;2023-07-31T06:55:21;22.40;92.00
32600;DHT22;19277;51.778;7.912;2023-07-31T06:57:52;22.50;92.20
32600;DHT22;19277;51.778;7.912;2023-07-31T07:00:18;22.40;92.20
32600;DHT22;19277;51.778;7.912;2023-07-31T07:02:45;22.40;92.20
32600;DHT22;19277;51.778;7.912;2023-07-31T07:05:13;22.30;92.20
32600;DHT22;19277;51.778;7.912;2023-07-31T07:07:38;22.30;92.20
32600;DHT22;19277;51.778;7.912;2023-07-31T07:10:04;22.40;92.30
32600;DHT22;19277;51.778;7.912;2023-07-31T07:12:31;22.30;92.20
32600;DHT22;19277;51.778;7.912;2023-07-31T07:14:57;22.40;92.30
32600;DHT22;19277;51.778;7.912;2023-07-31T07:17:23;22.40;92.30
32600;DHT22;19277;51.778;7.912;2023-07-31T07:19:49;22.30;92.20
32600;DHT22;19277;51.778;7.912;2023-07-31T07:22:15;22.30;92.50
32600;DHT22;19277;51.778;7.912;2023-07-31T07:24:40;22.30;92.20
32600;DHT22;19277;51.778;7.912;2023-07-31T07:27:06;22.40;92.20
32600;DHT22;19277;51.778;7.912;2023-07-31T07:29:33;22.40;92.20
32600;DHT22;19277;51.778;7.912;2023-07-31T07:31:59;22.40;92.10
32600;DHT22;19277;51.778;7.912;2023-07-31T07:34:26;22.40;92.20
32600;DHT22;19277;51.778;7.912;2023-07-31T07:36:52;22.40;92.20
32600;DHT22;19277;51.778;7.912;2023-07-31T07:39:18;22.40;92.20
32600;DHT22;19277;51.778;7.912;2023-07-31T07:41:43;22.40;92.30
32600;DHT22;19277;51.778;7.912;2023-07-31T07:44:09;22.30;92.20
32600;DHT22;19277;51.778;7.912;2023-07-31T07:46:34;22.40;92.30
32600;DHT22;19277;51.778;7.912;2023-07-31T07:49:00;22.40;92.20
32600;DHT22;19277;51.778;7.912;2023-07-31T07:51:26;22.40;92.20
32600;DHT22;19277;51.778;7.912;2023-07-31T07:53:51;22.50;92.30
32600;DHT22;19277;51.778;7.912;2023-07-31T07:56:17;22.40;92.30
32600;DHT22;19277;51.778;7.912;2023-07-31T07:58:43;22.50;92.30
32600;DHT22;19277;51.778;7.912;2023-07-31T08:01:08;22.50;92.30
32600;DHT22;19277;51.778;7.912;2023-07-31T08:03:34;22.40;92.30
32600;DHT22;19277;51.778;7.912;2023-07-31T08:06:00;22.50;92.20
32600;DHT22;19277;51.778;7.912;2023-07-31T08:08:26;22.50;92.20
32600;DHT22;19277;51.778;7.912;2023-07-31T08:10:51;22.50;92.30
32600;DHT22;19277;51.778;7.912;2023-07-31T08:13:17;22.50;92.10
32600;DHT22;19277;51.778;7.912;2023-07-31T08:15:43;22.50;92.10
32600;DHT22;19277;51.778;7.912;2023-07-31T08:18:09;22.50;92.10
32600;DHT22;19277;51.778;7.912;2023-07-31T08:20:35;22.50;92.00
32600;DHT22;19277;51.778;7.912;2023-07-31T08:23:00;22.50;92.10
32600;DHT22;19277;51.778;7.912;2023-07-31T08:25:26;22.50;92.10
32600;DHT22;19277;51.778;7.912;2023-07-31T08:27:52;22.50;92.10
32600;DHT22;19277;51.778;7.912;2023-07-31T08:30:19;22.50;92.20
32600;DHT22;19277;51.778;7.912;2023-07-31T08:32:44;22.50;92.20
32600;DHT22;19277;51.778;7.912;2023-07-31T08:35:10;22.50;92.30
32600;DHT22;19277;51.778;7.912;2023-07-31T08:37:37;22.50;92.30
32600;DHT22;19277;51.778;7.912;2023-07-31T08:40:03;22.60;92.40
32600;DHT22;19277;51.778;7.912;2023-07-31T08:42:29;22.60;92.40
32600;DHT22;19277;51.778;7.912;2023-07-31T08:44:56;22.60;92.50
32600;DHT22;19277;51.778;7.912;2023-07-31T08:47:22;22.60;92.40
32600;DHT22;19277;51.778;7.912;2023-07-31T08:49:49;22.60;92.30
32600;DHT22;19277;51.778;7.912;2023-07-31T08:52:15;22.60;92.20
32600;DHT22;19277;51.778;7.912;2023-07-31T08:54:42;22.60;92.20
32600;DHT22;19277;51.778;7.912;2023-07-31T08:57:09;22.60;92.10
32600;DHT22;19277;51.778;7.912;2023-07-31T08:59:35;22.60;92.00
32600;DHT22;19277;51.778;7.912;2023-07-31T09:02:06;22.70;91.80
32600;DHT22;19277;51.778;7.912;2023-07-31T09:04:33;22.70;91.90
32600;DHT22;19277;51.778;7.912;2023-07-31T09:07:02;22.70;92.00
32600;DHT22;19277;51.778;7.912;2023-07-31T09:09:30;22.70;92.20
32600;DHT22;19277;51.778;7.912;2023-07-31T09:11:57;22.70;91.90
32600;DHT22;19277;51.778;7.912;2023-07-31T09:14:24;22.70;91.90
32600;DHT22;19277;51.778;7.912;2023-07-31T09:16:55;22.70;91.80
32600;DHT22;19277;51.778;7.912;2023-07-31T09:19:32;22.70;91.80
32600;DHT22;19277;51.778;7.912;2023-07-31T09:21:59;22.70;91.70
32600;DHT22;19277;51.778;7.912;2023-07-31T09:24:29;22.70;91.90
32600;DHT22;19277;51.778;7.912;2023-07-31T09:26:56;22.70;91.60
32600;DHT22;19277;51.778;7.912;2023-07-31T09:29:24;22.70;91.60
32600;DHT22;19277;51.778;7.912;2023-07-31T09:31:50;22.80;91.60
32600;DHT22;19277;51.778;7.912;2023-07-31T09:34:16;22.80;91.60
32600;DHT22;19277;51.778;7.912;2023-07-31T09:36:46;22.80;91.70
32600;DHT22;19277;51.778;7.912;2023-07-31T09:39:12;22.80;91.70
32600;DHT22;19277;51.778;7.912;2023-07-31T09:41:40;22.80;91.70
32600;DHT22;19277;51.778;7.912;2023-07-31T09:44:06;22.80;91.70
32600;DHT22;19277;51.778;7.912;2023-07-31T09:46:32;22.80;91.80
32600;DHT22;19277;51.778;7.912;2023-07-31T09:49:10;22.80;91.80
32600;DHT22;19277;51.778;7.912;2023-07-31T09:51:41;22.80;91.90
32600;DHT22;19277;51.778;7.912;2023-07-31T09:54:13;22.80;91.80
32600;DHT22;19277;51.778;7.912;2023-07-31T09:56:42;22.80;91.70
32600;DHT22;19277;51.778;7.912;2023-07-31T09:59:11;22.70;91.60
32600;DHT22;19277;51.778;7.912;2023-07-31T10:01:38;22.80;91.60
32600;DHT22;19277;51.778;7.912;2023-07-31T10:04:05;22.80;91.60
32600;DHT22;19277;51.778;7.912;2023-07-31T10:06:33;22.80;91.50
32600;DHT22;19277;51.778;7.912;2023-07-31T10:09:00;22.80;91.60
32600;DHT22;19277;51.778;7.912;2023-07-31T10:11:27;22.80;91.70
32600;DHT22;19277;51.778;7.912;2023-07-31T10:13:55;22.80;91.70
32600;DHT22;19277;51.778;7.912;2023-07-31T10:16:21;22.80;91.60
32600;DHT22;19277;51.778;7.912;2023-07-31T10:18:47;22.80;91.60
32600;DHT22;19277;51.778;7.912;2023-07-31T10:21:14;22.80;91.60
32600;DHT22;19277;51.778;7.912;2023-07-31T10:23:41;22.80;91.60
32600;DHT22;19277;51.778;7.912;2023-07-31T10:26:07;22.80;91.90
32600;DHT22;19277;51.778;7.912;2023-07-31T10:28:34;22.90;92.00
32600;DHT22;19277;51.778;7.912;2023-07-31T10:31:03;22.90;92.30
32600;DHT22;19277;51.778;7.912;2023-07-31T10:33:29;22.90;92.60
32600;DHT22;19277;51.778;7.912;2023-07-31T10:36:34;23.00;92.80
32600;DHT22;19277;51.778;7.912;2023-07-31T10:38:59;23.00;92.90
32600;DHT22;19277;51.778;7.912;2023-07-31T10:41:31;23.00;92.90
32600;DHT22;19277;51.778;7.912;2023-07-31T10:44:00;23.00;93.00
32600;DHT22;19277;51.778;7.912;2023-07-31T10:46:27;23.00;92.90
32600;DHT22;19277;51.778;7.912;2023-07-31T10:49:03;23.00;92.90
32600;DHT22;19277;51.778;7.912;2023-07-31T10:51:35;23.00;92.90
32600;DHT22;19277;51.778;7.912;2023-07-31T10:54:21;22.90;92.80
32600;DHT22;19277;51.778;7.912;2023-07-31T10:56:50;22.50;93.70
32600;DHT22;19277;51.778;7.912;2023-07-31T10:59:15;22.30;93.90
32600;DHT22;19277;51.778;7.912;2023-07-31T11:01:52;22.20;94.30
32600;DHT22;19277;51.778;7.912;2023-07-31T11:04:25;22.00;94.70
32600;DHT22;19277;51.778;7.912;2023-07-31T11:06:59;21.90;95.20
32600;DHT22;19277;51.778;7.912;2023-07-31T11:09:28;21.90;95.40
32600;DHT22;19277;51.778;7.912;2023-07-31T11:11:55;21.80;95.60
32600;DHT22;19277;51.778;7.912;2023-07-31T11:14:21;21.70;95.90
32600;DHT22;19277;51.778;7.912;2023-07-31T11:16:49;21.60;96.40
32600;DHT22;19277;51.778;7.912;2023-07-31T11:19:21;21.50;96.60
32600;DHT22;19277;51.778;7.912;2023-07-31T11:21:48;21.50;96.80
32600;DHT22;19277;51.778;7.912;2023-07-31T11:24:13;21.60;96.80
32600;DHT22;19277;51.778;7.912;2023-07-31T11:26:42;21.50;97.00
32600;DHT22;19277;51.778;7.912;2023-07-31T11:29:13;21.50;97.00
32600;DHT22;19277;51.778;7.912;2023-07-31T11:31:45;21.60;97.30
32600;DHT22;19277;51.778;7.912;2023-07-31T11:34:11;21.70;97.40
32600;DHT22;19277;51.778;7.912;2023-07-31T11:36:37;21.80;96.90
32600;DHT22;19277;51.778;7.912;2023-07-31T11:39:07;21.90;96.60
32600;DHT22;19277;51.778;7.912;2023-07-31T11:41:33;22.10;96.20
32600;DHT22;19277;51.778;7.912;2023-07-31T11:44:02;22.10;96.00
32600;DHT22;19277;51.778;7.912;2023-07-31T11:46:30;21.90;96.70
32600;DHT22;19277;51.778;7.912;2023-07-31T11:48:59;21.70;96.90
32600;DHT22;19277;51.778;7.912;2023-07-31T11:51:26;21.60;97.00
32600;DHT22;19277;51.778;7.912;2023-07-31T11:53:56;21.30;97.70
32600;DHT22;19277;51.778;7.912;2023-07-31T11:56:23;21.20;98.00
32600;DHT22;19277;51.778;7.912;2023-07-31T11:58:52;21.10;98.80
32600;DHT22;19277;51.778;7.912;2023-07-31T12:01:19;20.90;99.20
32600;DHT22;19277;51.778;7.912;2023-07-31T12:03:47;20.90;99.50
32600;DHT22;19277;51.778;7.912;2023-07-31T12:06:13;21.00;99.30
32600;DHT22;19277;51.778;7.912;2023-07-31T12:08:38;20.90;99.60
32600;DHT22;19277;51.778;7.912;2023-07-31T12:11:05;21.00;99.50
32600;DHT22;19277;51.778;7.912;2023-07-31T12:13:32;21.00;99.20
32600;DHT22;19277;51.778;7.912;2023-07-31T12:16:00;21.00;99.30
32600;DHT22;19277;51.778;7.912;2023-07-31T12:18:30;20.90;99.50
32600;DHT22;19277;51.778;7.912;2023-07-31T12:20:58;21.00;99.40
32600;DHT22;19277;51.778;7.912;2023-07-31T12:23:29;20.90;99.70
32600;DHT22;19277;51.778;7.912;2023-07-31T12:26:11;21.00;99.70
32600;DHT22;19277;51.778;7.912;2023-07-31T12:28:37;20.90;99.90
32600;DHT22;19277;51.778;7.912;2023-07-31T12:31:04;21.00;99.90
32600;DHT22;19277;51.778;7.912;2023-07-31T12:33:37;21.20;99.70
32600;DHT22;19277;51.778;7.912;2023-07-31T12:36:18;21.20;99.80
32600;DHT22;19277;51.778;7.912;2023-07-31T12:38:45;21.20;99.60
32600;DHT22;19277;51.778;7.912;2023-07-31T12:41:11;21.20;99.40
32600;DHT22;19277;51.778;7.912;2023-07-31T12:43:39;21.40;99.10
32600;DHT22;19277;51.778;7.912;2023-07-31T12:46:04;21.30;99.60
32600;DHT22;19277;51.778;7.912;2023-07-31T12:48:31;21.50;99.20
32600;DHT22;19277;51.778;7.912;2023-07-31T12:50:57;21.50;99.30
32600;DHT22;19277;51.778;7.912;2023-07-31T12:53:22;21.50;99.60
32600;DHT22;19277;51.778;7.912;2023-07-31T12:55:48;21.70;99.00
32600;DHT22;19277;51.778;7.912;2023-07-31T12:58:13;21.80;98.60
32600;DHT22;19277;51.778;7.912;2023-07-31T13:00:39;22.00;98.20
32600;DHT22;19277;51.778;7.912;2023-07-31T13:03:04;22.20;97.90
32600;DHT22;19277;51.778;7.912;2023-07-31T13:05:30;22.30;97.50
32600;DHT22;19277;51.778;7.912;2023-07-31T13:07:56;22.40;97.20
32600;DHT22;19277;51.778;7.912;2023-07-31T13:10:22;22.20;97.50
32600;DHT22;19277;51.778;7.912;2023-07-31T13:12:48;21.90;98.00
32600;DHT22;19277;51.778;7.912;2023-07-31T13:15:14;21.60;98.70
32600;DHT22;19277;51.778;7.912;2023-07-31T13:17:39;21.50;99.30
32600;DHT22;19277;51.778;7.912;2023-07-31T13:20:05;21.50;99.20
32600;DHT22;19277;51.778;7.912;2023-07-31T13:22:31;21.50;99.10
32600;DHT22;19277;51.778;7.912;2023-07-31T13:24:57;21.60;99.10
32600;DHT22;19277;51.778;7.912;2023-07-31T13:27:22;21.70;98.70
32600;DHT22;19277;51.778;7.912;2023-07-31T13:29:52;21.60;99.20
32600;DHT22;19277;51.778;7.912;2023-07-31T13:32:19;21.50;99.40
32600;DHT22;19277;51.778;7.912;2023-07-31T13:34:45;21.60;99.50
32600;DHT22;19277;51.778;7.912;2023-07-31T13:37:11;21.40;99.90
32600;DHT22;19277;51.778;7.912;2023-07-31T13:39:37;21.50;99.90
32600;DHT22;19277;51.778;7.912;2023-07-31T13:42:03;21.50;99.80
32600;DHT22;19277;51.778;7.912;2023-07-31T13:44:32;21.40;99.60
32600;DHT22;19277;51.778;7.912;2023-07-31T13:46:58;21.50;99.40
32600;DHT22;19277;51.778;7.912;2023-07-31T13:49:23;21.50;99.50
32600;DHT22;19277;51.778;7.912;2023-07-31T13:51:49;21.50;99.10
32600;DHT22;19277;51.778;7.912;2023-07-31T13:54:15;21.60;99.30
32600;DHT22;19277;51.778;7.912;2023-07-31T13:56:41;21.50;99.50
32600;DHT22;19277;51.778;7.912;2023-07-31T13:59:06;21.60;99.50
32600;DHT22;19277;51.778;7.912;2023-07-31T14:01:32;21.50;99.30
32600;DHT22;19277;51.778;7.912;2023-07-31T14:03:58;21.60;98.90
32600;DHT22;19277;51.778;7.912;2023-07-31T14:06:23;21.60;98.70
32600;DHT22;19277;51.778;7.912;2023-07-31T14:08:49;21.50;99.20
32600;DHT22;19277;51.778;7.912;2023-07-31T14:11:15;21.50;99.10
32600;DHT22;19277;51.778;7.912;2023-07-31T14:13:40;21.50;99.10
32600;DHT22;19277;51.778;7.912;2023-07-31T14:16:06;21.40;99.10
32600;DHT22;19277;51.778;7.912;2023-07-31T14:18:31;21.40;99.20
32600;DHT22;19277;51.778;7.912;2023-07-31T14:20:57;21.30;99.80
32600;DHT22;19277;51.778;7.912;2023-07-31T14:23:23;21.10;99.80
32600;DHT22;19277;51.778;7.912;2023-07-31T14:25:48;21.10;99.90
32600;DHT22;19277;51.778;7.912;2023-07-31T14:28:14;21.20;99.90
32600;DHT22;19277;51.778;7.912;2023-07-31T14:30:39;21.20;99.90
32600;DHT22;19277;51.778;7.912;2023-07-31T14:33:05;21.20;99.90
32600;DHT22;19277;51.778;7.912;2023-07-31T14:35:31;21.30;99.70
32600;DHT22;19277;51.778;7.912;2023-07-31T14:37:56;21.30;99.50
32600;DHT22;19277;51.778;7.912;2023-07-31T14:40:22;21.30;99.50
32600;DHT22;19277;51.778;7.912;2023-07-31T14:42:47;21.30;99.90
32600;DHT22;19277;51.778;7.912;2023-07-31T14:45:13;21.20;99.90
32600;DHT22;19277;51.778;7.912;2023-07-31T14:47:39;21.20;99.90
32600;DHT22;19277;51.778;7.912;2023-07-31T14:50:05;21.20;99.90
32600;DHT22;19277;51.778;7.912;2023-07-31T14:52:31;21.20;99.90
32600;DHT22;19277;51.778;7.912;2023-07-31T14:54:56;21.00;99.90
32600;DHT22;19277;51.778;7.912;2023-07-31T14:57:22;21.10;99.90
32600;DHT22;19277;51.778;7.912;2023-07-31T14:59:47;21.10;99.90
32600;DHT22;19277;51.778;7.912;2023-07-31T15:02:14;21.10;99.90
32600;DHT22;19277;51.778;7.912;2023-07-31T15:04:39;21.00;99.90
32600;DHT22;19277;51.778;7.912;2023-07-31T15:07:05;21.10;99.90
32600;DHT22;19277;51.778;7.912;2023-07-31T15:09:31;21.10;99.90
32600;DHT22;19277;51.778;7.912;2023-07-31T15:11:57;21.10;99.90
32600;DHT22;19277;51.778;7.912;2023-07-31T15:14:23;21.10;99.90
32600;DHT22;19277;51.778;7.912;2023-07-31T15:16:49;21.10;99.90
32600;DHT22;19277;51.778;7.912;2023-07-31T15:19:15;21.10;99.90
32600;DHT22;19277;51.778;7.912;2023-07-31T15:21:41;21.20;99.90
32600;DHT22;19277;51.778;7.912;2023-07-31T15:24:06;21.00;99.90
32600;DHT22;19277;51.778;7.912;2023-07-31T15:26:32;21.00;99.90
32600;DHT22;19277;51.778;7.912;2023-07-31T15:29:05;21.00;99.90
32600;DHT22;19277;51.778;7.912;2023-07-31T15:31:35;21.00;99.90